sensor_id;sensor_type;location;lat;lon;timestamp;pressure;altitude;pressure_sealevel;temperature;humidity
63654;BME280;49809;47.418;19.080;2023-04-27T06:26:39;100859.63;;;9.30;56.21
63654;BME280;49809;47.418;19.080;2023-04-27T06:29:46;100868.28;;;9.72;52.45
63654;BME280;49809;47.418;19.080;2023-04-27T06:33:02;100862.62;;;9.80;52.40
63654;BME280;49809;47.418;19.080;2023-04-27T06:36:30;100869.81;;;10.20;49.13
63654;BME280;49809;47.418;19.080;2023-04-27T06:39:34;100875.41;;;10.35;47.47
63654;BME280;49809;47.418;19.080;2023-04-27T06:42:43;100869.09;;;10.36;47.26
63654;BME280;49809;47.418;19.080;2023-04-27T06:46:21;100875.50;;;10.68;48.31
63654;BME280;49809;47.418;19.080;2023-04-27T06:49:49;100863.91;;;11.03;46.65
63654;BME280;49809;47.418;19.080;2023-04-27T06:53:04;100874.47;;;10.69;46.06
63654;BME280;49809;47.418;19.080;2023-04-27T06:56:54;100873.88;;;10.67;45.98
63654;BME280;49809;47.418;19.080;2023-04-27T07:00:01;100873.47;;;10.30;46.03
63654;BME280;49809;47.418;19.080;2023-04-27T07:03:06;100871.19;;;10.22;47.03
63654;BME280;49809;47.418;19.080;2023-04-27T07:06:14;100869.03;;;9.96;47.11
63654;BME280;49809;47.418;19.080;2023-04-27T07:09:20;100861.97;;;10.25;46.62
63654;BME280;49809;47.418;19.080;2023-04-27T07:12:34;100872.13;;;10.73;47.40
63654;BME280;49809;47.418;19.080;2023-04-27T07:15:43;100870.28;;;10.73;46.45
63654;BME280;49809;47.418;19.080;2023-04-27T07:18:51;100873.12;;;10.83;47.84
63654;BME280;49809;47.418;19.080;2023-04-27T07:22:07;100878.66;;;10.14;48.08
63654;BME280;49809;47.418;19.080;2023-04-27T07:25:46;100877.72;;;10.88;45.51
63654;BME280;49809;47.418;19.080;2023-04-27T07:28:53;100882.06;;;11.11;44.39
63654;BME280;49809;47.418;19.080;2023-04-27T07:32:29;100885.38;;;10.73;45.79
63654;BME280;49809;47.418;19.080;2023-04-27T07:35:32;100879.97;;;11.46;44.59
63654;BME280;49809;47.418;19.080;2023-04-27T07:38:36;100881.72;;;11.96;45.79
63654;BME280;49809;47.418;19.080;2023-04-27T07:41:40;100886.62;;;12.04;42.11
63654;BME280;49809;47.418;19.080;2023-04-27T07:45:03;100885.69;;;12.63;41.56
63654;BME280;49809;47.418;19.080;2023-04-27T07:48:06;100891.63;;;12.71;41.37
63654;BME280;49809;47.418;19.080;2023-04-27T07:51:20;100878.78;;;12.89;38.98
63654;BME280;49809;47.418;19.080;2023-04-27T07:54:24;100881.28;;;13.01;39.45
63654;BME280;49809;47.418;19.080;2023-04-27T07:57:31;100878.25;;;13.56;36.29
63654;BME280;49809;47.418;19.080;2023-04-27T08:00:36;100876.38;;;13.52;34.47
63654;BME280;49809;47.418;19.080;2023-04-27T08:04:02;100871.22;;;14.39;32.86
63654;BME280;49809;47.418;19.080;2023-04-27T08:07:49;100879.06;;;15.27;31.14
63654;BME280;49809;47.418;19.080;2023-04-27T08:11:10;100861.81;;;16.03;27.99
63654;BME280;49809;47.418;19.080;2023-04-27T08:14:17;100860.69;;;16.20;29.04
63654;BME280;49809;47.418;19.080;2023-04-27T08:17:31;100871.06;;;16.75;29.44
63654;BME280;49809;47.418;19.080;2023-04-27T08:21:24;100863.19;;;16.60;27.02
63654;BME280;49809;47.418;19.080;2023-04-27T08:54:38;100867.66;;;16.70;26.43
63654;BME280;49809;47.418;19.080;2023-04-27T08:57:56;100865.62;;;15.92;27.50
63654;BME280;49809;47.418;19.080;2023-04-27T09:01:07;100864.09;;;15.56;28.58
63654;BME280;49809;47.418;19.080;2023-04-27T09:04:41;100860.06;;;16.38;29.02
63654;BME280;49809;47.418;19.080;2023-04-27T10:08:52;100817.56;;;17.91;26.55
63654;BME280;49809;47.418;19.080;2023-04-27T10:20:29;100797.94;;;17.95;26.89
63654;BME280;49809;47.418;19.080;2023-04-27T10:24:07;100806.25;;;16.93;28.45
63654;BME280;49809;47.418;19.080;2023-04-27T10:28:14;100817.09;;;16.29;28.12
63654;BME280;49809;47.418;19.080;2023-04-27T10:31:28;100802.25;;;17.20;28.73
63654;BME280;49809;47.418;19.080;2023-04-27T10:35:07;100801.50;;;18.47;26.86
63654;BME280;49809;47.418;19.080;2023-04-27T10:38:44;100804.25;;;18.23;26.59
63654;BME280;49809;47.418;19.080;2023-04-27T10:42:28;100804.66;;;16.92;25.91
63654;BME280;49809;47.418;19.080;2023-04-27T10:46:14;100802.53;;;20.11;24.50
63654;BME280;49809;47.418;19.080;2023-04-27T10:49:52;100791.44;;;20.62;24.45
63654;BME280;49809;47.418;19.080;2023-04-27T10:53:16;100793.19;;;21.99;21.07
63654;BME280;49809;47.418;19.080;2023-04-27T11:00:26;100798.44;;;20.27;22.54
63654;BME280;49809;47.418;19.080;2023-04-27T11:03:31;100797.50;;;20.46;23.33
63654;BME280;49809;47.418;19.080;2023-04-27T11:06:42;100802.94;;;18.77;24.80
63654;BME280;49809;47.418;19.080;2023-04-27T11:10:07;100798.22;;;18.50;25.79
63654;BME280;49809;47.418;19.080;2023-04-27T11:13:19;100792.59;;;18.70;24.54
63654;BME280;49809;47.418;19.080;2023-04-27T11:16:47;100792.97;;;20.55;23.41
63654;BME280;49809;47.418;19.080;2023-04-27T11:19:51;100791.59;;;18.66;25.13
63654;BME280;49809;47.418;19.080;2023-04-27T11:22:55;100785.19;;;18.06;25.79
63654;BME280;49809;47.418;19.080;2023-04-27T11:26:10;100789.44;;;17.69;26.66
63654;BME280;49809;47.418;19.080;2023-04-27T11:29:37;100789.87;;;17.76;26.37
63654;BME280;49809;47.418;19.080;2023-04-27T11:41:20;100780.28;;;17.23;26.58
63654;BME280;49809;47.418;19.080;2023-04-27T11:44:27;100775.66;;;18.00;27.07
63654;BME280;49809;47.418;19.080;2023-04-27T11:47:32;100772.91;;;18.23;25.13
63654;BME280;49809;47.418;19.080;2023-04-27T11:50:38;100770.28;;;19.62;24.89
63654;BME280;49809;47.418;19.080;2023-04-27T11:53:49;100775.94;;;20.23;25.45
63654;BME280;49809;47.418;19.080;2023-04-27T11:57:03;100775.66;;;20.11;23.98
63654;BME280;49809;47.418;19.080;2023-04-27T12:00:07;100773.63;;;20.97;23.78
63654;BME280;49809;47.418;19.080;2023-04-27T12:03:17;100770.13;;;20.66;24.28
63654;BME280;49809;47.418;19.080;2023-04-27T12:06:27;100763.53;;;19.50;23.55
63654;BME280;49809;47.418;19.080;2023-04-27T12:09:38;100773.59;;;20.08;24.40
63654;BME280;49809;47.418;19.080;2023-04-27T12:12:42;100765.41;;;19.36;24.65
63654;BME280;49809;47.418;19.080;2023-04-27T12:16:25;100764.69;;;19.72;24.21
63654;BME280;49809;47.418;19.080;2023-04-27T12:19:31;100771.53;;;19.37;24.56
63654;BME280;49809;47.418;19.080;2023-04-27T12:22:53;100758.81;;;19.29;24.75
63654;BME280;49809;47.418;19.080;2023-04-27T12:25:58;100772.53;;;18.30;25.81
63654;BME280;49809;47.418;19.080;2023-04-27T12:29:01;100763.38;;;17.51;26.87
63654;BME280;49809;47.418;19.080;2023-04-27T12:32:06;100770.13;;;17.20;27.95
63654;BME280;49809;47.418;19.080;2023-04-27T12:35:29;100767.53;;;18.23;25.82
63654;BME280;49809;47.418;19.080;2023-04-27T12:38:42;100769.91;;;16.59;28.36
63654;BME280;49809;47.418;19.080;2023-04-27T12:42:27;100766.47;;;16.87;27.98
63654;BME280;49809;47.418;19.080;2023-04-27T12:45:59;100753.44;;;18.18;25.82
63654;BME280;49809;47.418;19.080;2023-04-27T12:49:03;100755.37;;;17.27;27.56
63654;BME280;49809;47.418;19.080;2023-04-27T12:52:41;100758.16;;;17.41;28.13
63654;BME280;49809;47.418;19.080;2023-04-27T12:56:19;100762.31;;;17.00;27.69
63654;BME280;49809;47.418;19.080;2023-04-27T12:59:24;100751.25;;;17.35;28.33
63654;BME280;49809;47.418;19.080;2023-04-27T13:02:47;100757.16;;;17.08;28.31
63654;BME280;49809;47.418;19.080;2023-04-27T13:05:53;100757.41;;;17.12;27.01
63654;BME280;49809;47.418;19.080;2023-04-27T13:08:59;100763.19;;;17.71;27.82
63654;BME280;49809;47.418;19.080;2023-04-27T13:12:09;100758.91;;;17.23;28.84
63654;BME280;49809;47.418;19.080;2023-04-27T13:15:12;100758.03;;;16.75;28.37
63654;BME280;49809;47.418;19.080;2023-04-27T13:18:16;100766.16;;;16.60;28.88
63654;BME280;49809;47.418;19.080;2023-04-27T13:21:27;100757.69;;;16.81;27.34
63654;BME280;49809;47.418;19.080;2023-04-27T13:24:32;100753.44;;;16.75;27.99
63654;BME280;49809;47.418;19.080;2023-04-27T13:27:35;100765.44;;;16.44;29.36
63654;BME280;49809;47.418;19.080;2023-04-27T13:30:39;100766.69;;;16.13;28.75
63654;BME280;49809;47.418;19.080;2023-04-27T13:33:43;100759.56;;;15.39;29.51
63654;BME280;49809;47.418;19.080;2023-04-27T13:36:47;100757.38;;;15.46;30.71
63654;BME280;49809;47.418;19.080;2023-04-27T13:40:12;100769.91;;;15.60;29.10
63654;BME280;49809;47.418;19.080;2023-04-27T13:47:36;100764.16;;;15.97;28.69
63654;BME280;49809;47.418;19.080;2023-04-27T13:50:39;100762.84;;;15.90;28.65
63654;BME280;49809;47.418;19.080;2023-04-27T13:54:20;100761.75;;;15.91;28.83
63654;BME280;49809;47.418;19.080;2023-04-27T13:57:53;100764.62;;;16.04;29.83
63654;BME280;49809;47.418;19.080;2023-04-27T14:00:59;100755.31;;;16.02;29.71
63654;BME280;49809;47.418;19.080;2023-04-27T14:04:34;100763.50;;;16.16;29.37
63654;BME280;49809;47.418;19.080;2023-04-27T14:07:39;100765.50;;;15.90;29.29
63654;BME280;49809;47.418;19.080;2023-04-27T14:10:50;100765.25;;;15.86;29.42
63654;BME280;49809;47.418;19.080;2023-04-27T14:13:54;100761.66;;;15.42;29.25
63654;BME280;49809;47.418;19.080;2023-04-27T14:17:02;100772.91;;;15.34;28.91
63654;BME280;49809;47.418;19.080;2023-04-27T14:20:09;100768.06;;;15.56;29.90
63654;BME280;49809;47.418;19.080;2023-04-27T19:28:29;100940.94;;;7.59;63.62
63654;BME280;49809;47.418;19.080;2023-04-27T19:31:48;100943.62;;;7.53;64.52
63654;BME280;49809;47.418;19.080;2023-04-27T19:35:16;100949.16;;;7.45;65.89
63654;BME280;49809;47.418;19.080;2023-04-27T19:38:36;100950.38;;;7.42;67.45
63654;BME280;49809;47.418;19.080;2023-04-27T19:42:11;100947.25;;;7.27;67.52
63654;BME280;49809;47.418;19.080;2023-04-27T19:45:47;100944.88;;;7.19;68.27
63654;BME280;49809;47.418;19.080;2023-04-27T19:49:17;100949.59;;;7.10;69.54
63654;BME280;49809;47.418;19.080;2023-04-27T19:52:36;100946.19;;;7.03;69.94
63654;BME280;49809;47.418;19.080;2023-04-27T19:55:55;100947.62;;;6.99;70.13
63654;BME280;49809;47.418;19.080;2023-04-27T19:59:17;100939.81;;;6.86;70.31
63654;BME280;49809;47.418;19.080;2023-04-27T20:02:53;100948.13;;;6.83;72.18
63654;BME280;49809;47.418;19.080;2023-04-27T20:06:29;100944.12;;;6.74;70.66
63654;BME280;49809;47.418;19.080;2023-04-27T20:10:06;100948.00;;;6.65;70.99
63654;BME280;49809;47.418;19.080;2023-04-27T20:13:42;100946.03;;;6.53;71.59
63654;BME280;49809;47.418;19.080;2023-04-27T20:17:08;100944.44;;;6.52;73.07
63654;BME280;49809;47.418;19.080;2023-04-27T20:20:35;100949.72;;;6.46;74.34
63654;BME280;49809;47.418;19.080;2023-04-27T20:24:11;100950.34;;;6.41;74.77
63654;BME280;49809;47.418;19.080;2023-04-27T20:27:29;100951.41;;;6.34;74.10
63654;BME280;49809;47.418;19.080;2023-04-27T20:30:52;100947.16;;;6.26;74.83
63654;BME280;49809;47.418;19.080;2023-04-27T20:34:31;100946.97;;;6.21;75.89
63654;BME280;49809;47.418;19.080;2023-04-27T20:38:01;100952.25;;;6.08;76.32
63654;BME280;49809;47.418;19.080;2023-04-27T20:41:35;100953.28;;;6.07;77.46
63654;BME280;49809;47.418;19.080;2023-04-27T20:45:03;100956.72;;;6.01;77.85
63654;BME280;49809;47.418;19.080;2023-04-27T20:48:28;100951.06;;;5.91;78.13
63654;BME280;49809;47.418;19.080;2023-04-27T20:51:58;100951.06;;;5.84;78.50
63654;BME280;49809;47.418;19.080;2023-04-27T20:55:35;100951.66;;;5.80;79.16
63654;BME280;49809;47.418;19.080;2023-04-27T20:59:00;100959.34;;;5.75;79.81
63654;BME280;49809;47.418;19.080;2023-04-27T21:02:35;100953.88;;;5.76;80.64
63654;BME280;49809;47.418;19.080;2023-04-27T21:06:11;100959.97;;;5.70;80.28
63654;BME280;49809;47.418;19.080;2023-04-27T21:09:55;100958.75;;;5.59;79.97
63654;BME280;49809;47.418;19.080;2023-04-27T21:13:32;100968.03;;;5.55;79.73
63654;BME280;49809;47.418;19.080;2023-04-27T21:17:07;100969.25;;;5.53;81.69
63654;BME280;49809;47.418;19.080;2023-04-27T21:20:43;100958.13;;;5.44;82.21
63654;BME280;49809;47.418;19.080;2023-04-27T21:24:30;100974.09;;;5.36;82.47
63654;BME280;49809;47.418;19.080;2023-04-27T21:27:48;100979.13;;;5.31;82.33
63654;BME280;49809;47.418;19.080;2023-04-27T21:31:23;100977.69;;;5.29;82.36
63654;BME280;49809;47.418;19.080;2023-04-27T21:34:58;100985.59;;;5.22;83.05
63654;BME280;49809;47.418;19.080;2023-04-27T21:42:13;100985.38;;;5.17;83.24
63654;BME280;49809;47.418;19.080;2023-04-27T21:53:14;100996.41;;;4.99;82.08
63654;BME280;49809;47.418;19.080;2023-04-27T21:56:33;100997.00;;;4.95;82.17
63654;BME280;49809;47.418;19.080;2023-04-27T22:00:04;100999.41;;;4.90;82.68
63654;BME280;49809;47.418;19.080;2023-04-27T22:07:18;101008.28;;;4.82;83.91
63654;BME280;49809;47.418;19.080;2023-04-27T22:10:59;101018.34;;;4.78;83.46
63654;BME280;49809;47.418;19.080;2023-04-27T22:14:17;101009.03;;;4.69;83.70
63654;BME280;49809;47.418;19.080;2023-04-27T22:17:52;101006.97;;;4.65;83.81
63654;BME280;49809;47.418;19.080;2023-04-27T22:21:21;101013.66;;;4.67;83.95
63654;BME280;49809;47.418;19.080;2023-04-27T22:24:57;101010.03;;;4.68;86.17
63654;BME280;49809;47.418;19.080;2023-04-27T22:28:18;101015.81;;;4.57;87.59
63654;BME280;49809;47.418;19.080;2023-04-27T22:53:42;101031.38;;;4.31;90.21
63654;BME280;49809;47.418;19.080;2023-04-27T22:57:00;101030.16;;;4.27;90.33
63654;BME280;49809;47.418;19.080;2023-04-27T23:00:25;101023.66;;;4.16;90.29
63654;BME280;49809;47.418;19.080;2023-04-27T23:03:59;101042.59;;;4.18;90.44
63654;BME280;49809;47.418;19.080;2023-04-27T23:07:21;101042.59;;;4.18;90.63
63654;BME280;49809;47.418;19.080;2023-04-27T23:10:40;101039.31;;;4.10;90.96
63654;BME280;49809;47.418;19.080;2023-04-27T23:14:14;101037.84;;;4.01;91.55
63654;BME280;49809;47.418;19.080;2023-04-27T23:17:40;101039.66;;;4.00;91.88
63654;BME280;49809;47.418;19.080;2023-04-27T23:21:17;101034.38;;;3.93;91.59
63654;BME280;49809;47.418;19.080;2023-04-27T23:24:51;101045.59;;;3.87;91.87
63654;BME280;49809;47.418;19.080;2023-04-27T23:28:25;101039.19;;;3.90;91.91
63654;BME280;49809;47.418;19.080;2023-04-27T23:32:02;101039.81;;;3.92;92.30
63654;BME280;49809;47.418;19.080;2023-04-27T23:35:30;101047.09;;;3.75;91.53
63654;BME280;49809;47.418;19.080;2023-04-27T23:39:01;101048.75;;;3.76;91.84
63654;BME280;49809;47.418;19.080;2023-04-27T23:42:36;101047.50;;;3.72;91.67
63654;BME280;49809;47.418;19.080;2023-04-27T23:53:04;101050.28;;;3.71;91.80
63654;BME280;49809;47.418;19.080;2023-04-27T23:56:16;101043.59;;;3.68;91.92
63654;BME280;49809;47.418;19.080;2023-04-27T23:59:44;101048.25;;;3.66;91.83
